Time;durP1;ratioP1;P1;durP2;ratioP2;P2;SDS_P1;SDS_P2;PMS_P1;PMS_P2;Temp;Humidity;BMP_temperature;BMP_pressure;BME280_temperature;BME280_humidity;BME280_pressure;Samples;Min_cycle;Max_cycle;Signal;HPM_P1;HPM_P2
2021/11/13 00:02:00;;;;;;;31.17;7.90;;;5.20;93.20;;;;;;5133111;27;20618;-66
2021/11/13 00:04:27;;;;;;;10.73;6.90;;;5.20;93.00;;;;;;5133497;27;20204;-66
2021/11/13 00:06:56;;;;;;;15.90;7.45;;;5.00;93.10;;;;;;5133115;27;20315;-67
2021/11/13 00:09:23;;;;;;;12.38;6.10;;;5.00;93.20;;;;;;5133146;27;20258;-67
2021/11/13 00:11:51;;;;;;;14.27;5.90;;;4.90;93.40;;;;;;5133159;27;20220;-66
2021/11/13 00:14:20;;;;;;;13.60;6.30;;;4.80;93.70;;;;;;5133185;27;20237;-66
2021/11/13 00:16:48;;;;;;;26.45;7.50;;;4.70;93.70;;;;;;5132903;27;20184;-67
2021/11/13 00:19:15;;;;;;;12.85;8.02;;;4.70;93.90;;;;;;5128835;27;20192;-67
2021/11/13 00:21:43;;;;;;;10.70;6.75;;;4.70;94.10;;;;;;5132950;27;20284;-66
2021/11/13 00:24:12;;;;;;;13.57;6.63;;;4.70;94.00;;;;;;5132927;27;20184;-67
2021/11/13 00:26:40;;;;;;;7.20;5.75;;;4.60;93.90;;;;;;5132437;27;20233;-67
2021/11/13 00:29:07;;;;;;;18.33;6.00;;;4.50;93.60;;;;;;5134705;27;20199;-66
2021/11/13 00:31:34;;;;;;;9.75;6.28;;;4.60;93.40;;;;;;5134616;27;20673;-66
2021/11/13 00:34:01;;;;;;;14.90;9.80;;;4.50;93.40;;;;;;5134358;27;20237;-65
2021/11/13 00:36:29;;;;;;;16.80;8.00;;;4.50;93.70;;;;;;5133915;27;20202;-68
2021/11/13 00:38:56;;;;;;;17.80;10.68;;;4.40;93.60;;;;;;5134048;27;20184;-67
2021/11/13 00:41:25;;;;;;;9.63;6.45;;;4.40;93.10;;;;;;5134704;27;20718;-67
2021/11/13 00:43:52;;;;;;;8.95;7.35;;;4.40;93.30;;;;;;5134089;27;20181;-67
2021/11/13 00:46:19;;;;;;;7.43;5.93;;;4.30;93.20;;;;;;5133996;27;20220;-66
2021/11/13 00:48:46;;;;;;;8.65;6.00;;;4.40;93.50;;;;;;5133708;27;20196;-66
2021/11/13 00:51:14;;;;;;;12.48;5.65;;;4.40;93.60;;;;;;5134321;27;20200;-67
2021/11/13 00:53:43;;;;;;;14.18;6.45;;;4.40;92.80;;;;;;5133758;27;20275;-67
2021/11/13 00:56:10;;;;;;;9.90;5.82;;;4.40;93.30;;;;;;5134074;27;20708;-66
2021/11/13 00:58:39;;;;;;;8.70;5.65;;;4.30;93.20;;;;;;5133913;27;20200;-66
2021/11/13 01:01:07;;;;;;;13.20;6.88;;;4.30;93.30;;;;;;5134096;27;20196;-67
2021/11/13 01:03:35;;;;;;;7.68;6.80;;;4.30;93.30;;;;;;5133336;27;20180;-67
2021/11/13 01:06:08;;;;;;;10.20;7.28;;;4.40;93.20;;;;;;5133828;27;20227;-67
2021/11/13 01:08:35;;;;;;;10.05;6.93;;;4.40;93.10;;;;;;5132888;27;20486;-67
2021/11/13 01:11:03;;;;;;;8.25;6.43;;;4.40;93.00;;;;;;5133770;27;20219;-67
2021/11/13 01:13:32;;;;;;;9.75;6.25;;;4.40;92.90;;;;;;5133019;27;20596;-66
2021/11/13 01:16:00;;;;;;;13.35;7.05;;;4.40;92.40;;;;;;5133174;27;20188;-67
2021/11/13 01:18:28;;;;;;;7.10;6.00;;;4.40;92.30;;;;;;5132968;27;20192;-67
2021/11/13 01:20:55;;;;;;;9.35;5.93;;;4.30;92.50;;;;;;5133368;27;20180;-66
2021/11/13 01:23:22;;;;;;;7.30;5.63;;;4.40;92.40;;;;;;5133760;27;20193;-66
2021/11/13 01:25:49;;;;;;;6.78;5.65;;;4.40;92.30;;;;;;5132530;27;20654;-66
2021/11/13 01:28:16;;;;;;;8.32;5.25;;;4.40;92.20;;;;;;5133630;27;20248;-66
2021/11/13 01:30:44;;;;;;;7.43;5.57;;;4.40;92.00;;;;;;5133036;27;20188;-66
2021/11/13 01:33:13;;;;;;;8.38;6.07;;;4.30;91.60;;;;;;5133651;27;20189;-67
2021/11/13 01:35:40;;;;;;;8.90;5.68;;;4.30;91.30;;;;;;5132997;27;20188;-67
2021/11/13 01:38:07;;;;;;;7.93;5.43;;;4.20;91.00;;;;;;5133299;27;20241;-66
2021/11/13 01:40:35;;;;;;;8.40;5.85;;;4.20;91.10;;;;;;5133019;27;20210;-66
2021/11/13 01:43:07;;;;;;;5.30;4.80;;;4.20;91.10;;;;;;5133250;27;20268;-67
2021/11/13 01:45:35;;;;;;;5.85;5.25;;;4.10;91.20;;;;;;5132728;27;20180;-66
2021/11/13 01:48:02;;;;;;;8.38;5.88;;;4.10;90.90;;;;;;5133348;27;20212;-67
2021/11/13 01:50:35;;;;;;;8.73;5.32;;;4.10;90.90;;;;;;5132674;27;20264;-66
2021/11/13 01:53:08;;;;;;;9.95;5.55;;;4.00;90.70;;;;;;5133313;27;20242;-66
2021/11/13 01:55:37;;;;;;;6.82;4.97;;;4.00;90.80;;;;;;5132859;27;20184;-66
2021/11/13 01:58:04;;;;;;;7.22;5.45;;;4.00;91.20;;;;;;5132821;27;20206;-66
2021/11/13 02:00:39;;;;;;;12.73;5.43;;;4.00;90.70;;;;;;5132879;27;20661;-66
2021/11/13 02:03:07;;;;;;;5.97;5.35;;;3.90;90.40;;;;;;5132563;27;20187;-66
2021/11/13 02:05:36;;;;;;;7.85;5.90;;;3.90;90.50;;;;;;5133309;27;20202;-66
2021/11/13 02:08:04;;;;;;;8.15;5.07;;;3.90;90.50;;;;;;5132497;27;20216;-66
2021/11/13 02:10:32;;;;;;;6.28;4.75;;;3.90;90.70;;;;;;5132333;28;20265;-66
2021/11/13 02:13:05;;;;;;;6.13;5.47;;;3.90;90.80;;;;;;5132950;27;20241;-66
2021/11/13 02:15:34;;;;;;;6.05;5.18;;;3.80;90.80;;;;;;5133173;27;20188;-67
2021/11/13 02:18:03;;;;;;;4.40;3.88;;;3.80;90.80;;;;;;5132365;27;20878;-67
2021/11/13 02:20:35;;;;;;;6.57;5.47;;;3.80;90.70;;;;;;5132711;28;20188;-66
2021/11/13 02:23:06;;;;;;;10.82;6.47;;;3.80;90.70;;;;;;5132452;27;20491;-66
2021/11/13 02:25:33;;;;;;;8.77;5.72;;;3.80;90.80;;;;;;5132847;28;20223;-67
2021/11/13 02:28:02;;;;;;;7.30;6.60;;;3.80;90.30;;;;;;5132560;28;20214;-67
2021/11/13 02:30:35;;;;;;;9.52;5.63;;;3.80;90.50;;;;;;5132306;27;20224;-67
2021/11/13 02:33:03;;;;;;;4.55;4.15;;;3.80;90.60;;;;;;5132768;27;20188;-66
2021/11/13 02:35:33;;;;;;;5.70;3.95;;;3.80;90.50;;;;;;5131953;28;20230;-66
2021/11/13 02:38:09;;;;;;;6.75;4.40;;;3.80;90.60;;;;;;5134738;27;20192;-66
2021/11/13 02:40:37;;;;;;;9.60;4.65;;;3.80;90.40;;;;;;5136697;27;20686;-66
2021/11/13 02:43:05;;;;;;;4.60;3.85;;;3.80;90.50;;;;;;5136836;27;20201;-66
2021/11/13 02:45:33;;;;;;;7.40;5.05;;;3.80;90.30;;;;;;5136200;27;20187;-66
2021/11/13 02:48:03;;;;;;;5.22;4.10;;;3.80;90.30;;;;;;5136509;27;20227;-67
2021/11/13 02:50:33;;;;;;;5.55;5.03;;;3.70;90.50;;;;;;5136090;27;20180;-66
2021/11/13 02:53:03;;;;;;;6.70;5.15;;;3.70;90.70;;;;;;5136204;27;20180;-66
2021/11/13 02:55:31;;;;;;;11.82;5.22;;;3.70;90.80;;;;;;5136287;27;20241;-66
2021/11/13 02:57:58;;;;;;;8.68;5.53;;;3.70;90.50;;;;;;5136257;27;20233;-66
2021/11/13 03:00:29;;;;;;;11.13;5.93;;;3.70;90.60;;;;;;5135642;27;20250;-66
2021/11/13 03:02:56;;;;;;;15.30;5.65;;;3.70;90.90;;;;;;5136743;27;20233;-66
2021/11/13 03:05:26;;;;;;;7.80;4.97;;;3.70;91.00;;;;;;5135821;27;20180;-66
2021/11/13 03:07:57;;;;;;;7.53;5.15;;;3.60;90.90;;;;;;5136271;27;20215;-66
2021/11/13 03:10:27;;;;;;;10.63;5.80;;;3.50;90.70;;;;;;5135601;27;20550;-66
2021/11/13 03:12:54;;;;;;;12.80;5.97;;;3.50;91.10;;;;;;5136511;27;20221;-66
2021/11/13 03:15:23;;;;;;;14.57;7.13;;;3.50;91.10;;;;;;5135579;27;20184;-66
2021/11/13 03:17:51;;;;;;;24.52;5.82;;;3.50;91.00;;;;;;5136137;27;20252;-66
2021/11/13 03:20:22;;;;;;;10.18;5.47;;;3.40;91.20;;;;;;5135657;27;20559;-66
2021/11/13 03:22:49;;;;;;;10.98;5.88;;;3.40;91.00;;;;;;5136293;27;20613;-67
2021/11/13 03:25:20;;;;;;;9.10;5.25;;;3.40;91.00;;;;;;5135221;27;20191;-67
2021/11/13 03:27:50;;;;;;;15.93;5.72;;;3.30;91.10;;;;;;5135934;27;20219;-66
2021/11/13 03:30:18;;;;;;;16.95;4.90;;;3.30;91.00;;;;;;5135782;27;20192;-66
2021/11/13 03:32:46;;;;;;;8.30;5.00;;;3.20;90.90;;;;;;5135353;27;20594;-66
2021/11/13 03:35:17;;;;;;;8.32;5.70;;;3.20;91.10;;;;;;5135722;27;20195;-66
2021/11/13 03:37:45;;;;;;;13.63;4.82;;;3.10;91.20;;;;;;5135246;27;20188;-66
2021/11/13 03:40:19;;;;;;;8.10;4.97;;;3.10;91.20;;;;;;5135767;27;20195;-67
2021/11/13 03:42:46;;;;;;;5.75;5.18;;;3.10;91.10;;;;;;5135182;27;20187;-67
2021/11/13 03:45:14;;;;;;;8.23;5.43;;;3.10;91.10;;;;;;5135671;27;20646;-67
2021/11/13 03:47:41;;;;;;;8.38;5.30;;;3.10;91.00;;;;;;5135453;27;20571;-68
2021/11/13 03:50:11;;;;;;;6.78;5.70;;;3.00;90.90;;;;;;5134574;27;20183;-66
2021/11/13 03:52:38;;;;;;;8.27;4.90;;;3.00;90.90;;;;;;5134944;27;20188;-66
2021/11/13 03:55:06;;;;;;;7.10;4.68;;;3.00;91.30;;;;;;5135482;27;20227;-66
2021/11/13 03:57:35;;;;;;;8.52;5.28;;;3.00;91.00;;;;;;5134938;27;20188;-66
2021/11/13 04:00:03;;;;;;;6.65;5.53;;;3.00;90.80;;;;;;5135765;27;20189;-66
2021/11/13 04:02:30;;;;;;;7.28;5.15;;;3.00;90.80;;;;;;5135161;27;20198;-67
2021/11/13 04:04:58;;;;;;;7.05;5.55;;;3.00;90.90;;;;;;5135312;27;20202;-67
2021/11/13 04:07:25;;;;;;;7.60;5.97;;;3.00;91.00;;;;;;5134949;27;20264;-67
2021/11/13 04:09:52;;;;;;;8.10;5.18;;;3.00;91.00;;;;;;5134989;27;20260;-66
2021/11/13 04:12:19;;;;;;;6.03;5.43;;;3.00;91.10;;;;;;5135073;27;20196;-69
2021/11/13 04:14:48;;;;;;;11.63;6.75;;;3.00;91.20;;;;;;5134576;27;20184;-67
2021/11/13 04:17:15;;;;;;;7.82;6.20;;;3.00;91.20;;;;;;5135410;27;20537;-67
2021/11/13 04:19:43;;;;;;;7.50;5.32;;;3.00;91.40;;;;;;5134682;27;20192;-67
2021/11/13 04:22:11;;;;;;;7.47;4.88;;;3.00;91.10;;;;;;5135215;27;20199;-66
2021/11/13 04:24:38;;;;;;;7.35;5.40;;;3.10;90.80;;;;;;5134632;27;20604;-66
2021/11/13 04:27:05;;;;;;;5.30;4.50;;;3.10;90.70;;;;;;5134823;27;20306;-66
2021/11/13 04:29:33;;;;;;;4.45;3.97;;;3.00;90.40;;;;;;5135128;27;20184;-66
2021/11/13 04:32:02;;;;;;;5.60;4.80;;;3.00;90.20;;;;;;5134757;27;20219;-66
2021/11/13 04:34:40;;;;;;;6.63;5.25;;;3.00;90.40;;;;;;5134753;27;20229;-67
2021/11/13 04:37:14;;;;;;;6.13;4.93;;;3.00;90.30;;;;;;5134792;27;20668;-66
2021/11/13 04:39:41;;;;;;;6.57;4.57;;;3.00;90.00;;;;;;5134825;27;20659;-66
2021/11/13 04:42:09;;;;;;;5.25;4.70;;;2.90;89.90;;;;;;5134653;27;20207;-66
2021/11/13 04:44:36;;;;;;;5.80;5.20;;;2.80;89.70;;;;;;5134725;27;20192;-66
2021/11/13 04:47:05;;;;;;;6.63;5.90;;;2.80;90.10;;;;;;5133892;27;20224;-66
2021/11/13 04:49:33;;;;;;;6.35;5.63;;;2.80;90.20;;;;;;5134342;27;20195;-66
2021/11/13 04:52:01;;;;;;;6.10;5.25;;;2.80;90.30;;;;;;5134458;27;20194;-66
2021/11/13 04:54:28;;;;;;;9.52;5.28;;;2.80;90.40;;;;;;5134822;27;20598;-66
2021/11/13 04:56:56;;;;;;;5.65;4.93;;;2.80;90.20;;;;;;5133795;27;20223;-66
2021/11/13 04:59:26;;;;;;;6.03;4.43;;;2.80;90.20;;;;;;5134200;27;20196;-67
2021/11/13 05:01:53;;;;;;;6.55;5.60;;;2.80;90.00;;;;;;5133035;27;20219;-66
2021/11/13 05:04:23;;;;;;;6.95;5.50;;;2.70;89.80;;;;;;5134245;27;20237;-66
2021/11/13 05:06:50;;;;;;;5.93;4.82;;;2.70;90.10;;;;;;5133472;27;20278;-66
2021/11/13 05:09:17;;;;;;;5.80;5.22;;;2.60;89.90;;;;;;5133929;27;20196;-66
2021/11/13 05:11:44;;;;;;;5.53;4.53;;;2.60;89.90;;;;;;5133877;27;20220;-66
2021/11/13 05:14:11;;;;;;;5.70;4.18;;;2.60;90.10;;;;;;5133961;27;20200;-66
2021/11/13 05:16:41;;;;;;;5.38;4.65;;;2.70;90.10;;;;;;5133740;27;20202;-66
2021/11/13 05:19:09;;;;;;;7.47;6.10;;;2.70;90.30;;;;;;5133929;27;20662;-67
2021/11/13 05:21:38;;;;;;;5.75;5.10;;;2.70;90.50;;;;;;5133668;27;20188;-66
2021/11/13 05:24:06;;;;;;;8.38;5.70;;;2.80;90.30;;;;;;5134074;27;20195;-66
2021/11/13 05:26:35;;;;;;;7.40;5.10;;;2.80;90.10;;;;;;5132796;27;20245;-66
2021/11/13 05:29:03;;;;;;;8.25;4.60;;;2.80;90.10;;;;;;5133276;27;20247;-66
2021/11/13 05:31:30;;;;;;;5.63;4.15;;;2.80;90.60;;;;;;5133778;27;20796;-66
2021/11/13 05:34:00;;;;;;;6.07;4.18;;;2.80;90.10;;;;;;5133305;27;20223;-66
2021/11/13 05:36:27;;;;;;;7.88;5.10;;;2.90;89.90;;;;;;5133772;27;20192;-66
2021/11/13 05:38:56;;;;;;;6.18;5.57;;;2.80;89.40;;;;;;5133205;27;20181;-66
2021/11/13 05:41:23;;;;;;;7.45;4.57;;;2.70;88.90;;;;;;5133598;27;20184;-66
2021/11/13 05:43:56;;;;;;;6.05;4.90;;;2.70;89.40;;;;;;5133358;27;20237;-66
2021/11/13 05:46:26;;;;;;;5.10;3.70;;;2.70;88.90;;;;;;5132757;27;20176;-66
2021/11/13 05:48:53;;;;;;;6.35;5.43;;;2.70;89.20;;;;;;5133442;27;20227;-66
2021/11/13 05:51:21;;;;;;;6.28;5.50;;;2.70;89.50;;;;;;5132804;27;20180;-66
2021/11/13 05:53:58;;;;;;;4.90;4.38;;;2.70;89.70;;;;;;5133293;27;20623;-66
2021/11/13 05:56:28;;;;;;;6.57;5.07;;;2.80;90.10;;;;;;5133047;27;20180;-66
2021/11/13 05:59:01;;;;;;;5.97;5.38;;;2.80;90.10;;;;;;5133045;27;20192;-66
2021/11/13 06:01:39;;;;;;;4.75;4.22;;;2.80;90.10;;;;;;5132844;27;20714;-66
2021/11/13 06:04:09;;;;;;;6.88;5.20;;;2.80;90.10;;;;;;5133391;27;20674;-66
2021/11/13 06:06:38;;;;;;;5.25;4.68;;;2.90;90.30;;;;;;5132679;27;20184;-66
2021/11/13 06:09:10;;;;;;;6.10;5.35;;;2.90;90.20;;;;;;5132982;27;20261;-66
2021/11/13 06:11:40;;;;;;;4.60;4.10;;;2.90;90.20;;;;;;5133422;27;20626;-66
2021/11/13 06:14:10;;;;;;;5.25;4.75;;;2.90;89.70;;;;;;5132696;28;20662;-66
2021/11/13 06:16:42;;;;;;;5.50;4.82;;;2.90;89.80;;;;;;5133416;28;20642;-66
2021/11/13 06:19:09;;;;;;;5.65;4.30;;;2.90;88.90;;;;;;5133142;28;20176;-66
2021/11/13 06:21:39;;;;;;;7.15;4.70;;;2.90;89.50;;;;;;5133134;28;20192;-67
2021/11/13 06:24:10;;;;;;;6.60;5.50;;;2.90;89.80;;;;;;5132967;27;20184;-66
2021/11/13 06:26:49;;;;;;;5.75;5.10;;;3.00;90.10;;;;;;5133629;28;20228;-66
2021/11/13 06:29:20;;;;;;;13.00;10.10;;;3.00;90.00;;;;;;5132995;28;20199;-67
2021/11/13 06:31:49;;;;;;;11.32;9.63;;;3.00;90.10;;;;;;5132714;27;20192;-67
2021/11/13 06:34:30;;;;;;;7.35;6.40;;;3.00;90.10;;;;;;5133065;27;20188;-67
2021/11/13 06:37:04;;;;;;;8.18;5.93;;;3.00;90.00;;;;;;5133057;28;20192;-67
2021/11/13 06:39:39;;;;;;;7.75;6.95;;;3.00;89.40;;;;;;5133260;28;20227;-66
2021/11/13 06:42:09;;;;;;;9.55;7.85;;;3.00;90.10;;;;;;5132486;27;20184;-66
2021/11/13 06:44:42;;;;;;;8.50;6.95;;;3.10;88.70;;;;;;5133017;27;20227;-66
2021/11/13 06:47:10;;;;;;;7.97;6.35;;;2.90;89.30;;;;;;5133130;27;20193;-67
2021/11/13 06:49:41;;;;;;;6.07;5.47;;;2.90;90.20;;;;;;5132434;28;20227;-67
2021/11/13 06:52:15;;;;;;;6.10;5.45;;;3.00;90.20;;;;;;5133053;28;20218;-66
2021/11/13 06:54:52;;;;;;;6.63;4.88;;;3.00;90.60;;;;;;5132780;27;20588;-67
2021/11/13 06:57:28;;;;;;;8.25;6.40;;;3.10;91.00;;;;;;5112094;28;20192;-66
2021/11/13 06:59:56;;;;;;;8.07;6.65;;;3.20;91.00;;;;;;5122968;28;20188;-66
2021/11/13 07:02:32;;;;;;;6.38;5.75;;;3.30;91.00;;;;;;5133034;27;20231;-66
2021/11/13 07:05:01;;;;;;;8.55;6.47;;;3.40;90.90;;;;;;5132165;27;20205;-67
2021/11/13 07:07:37;;;;;;;11.02;8.05;;;3.60;91.10;;;;;;5132589;28;20231;-67
2021/11/13 07:10:07;;;;;;;15.35;9.13;;;3.80;91.10;;;;;;5131920;28;20219;-66
2021/11/13 07:12:38;;;;;;;11.73;7.60;;;4.00;90.80;;;;;;5132705;27;20657;-67
2021/11/13 07:15:11;;;;;;;7.97;7.18;;;4.20;90.40;;;;;;5132432;28;20203;-67
2021/11/13 07:17:48;;;;;;;9.52;7.75;;;4.30;89.70;;;;;;5132957;27;20200;-65
2021/11/13 07:20:23;;;;;;;7.07;6.38;;;4.40;89.40;;;;;;5132366;28;20196;-65
2021/11/13 07:22:59;;;;;;;9.35;7.63;;;4.40;88.00;;;;;;5131951;28;20674;-66
2021/11/13 07:25:32;;;;;;;9.25;7.15;;;4.50;87.80;;;;;;5134924;27;20191;-65
2021/11/13 07:28:04;;;;;;;8.50;6.45;;;4.70;88.20;;;;;;5135629;27;20244;-65
2021/11/13 07:30:40;;;;;;;10.25;6.97;;;4.90;87.90;;;;;;5133377;27;20200;-66
2021/11/13 07:33:15;;;;;;;6.80;5.95;;;5.00;86.60;;;;;;5134482;27;20275;-66
2021/11/13 07:35:47;;;;;;;7.32;5.75;;;5.20;86.30;;;;;;5130597;27;20681;-66
2021/11/13 07:38:23;;;;;;;8.48;6.25;;;5.50;85.80;;;;;;5133966;27;20188;-66
2021/11/13 07:40:51;;;;;;;6.68;5.97;;;5.70;85.50;;;;;;5134015;27;20188;-66
2021/11/13 07:43:26;;;;;;;7.40;6.10;;;5.90;83.90;;;;;;5134031;27;20207;-66
2021/11/13 07:45:56;;;;;;;6.97;6.15;;;6.00;83.80;;;;;;5133993;27;20195;-66
2021/11/13 07:48:25;;;;;;;9.35;6.25;;;6.30;82.50;;;;;;5133502;27;20227;-66
2021/11/13 07:50:58;;;;;;;9.48;7.30;;;6.70;82.20;;;;;;5134229;27;20192;-66
2021/11/13 07:53:28;;;;;;;8.40;7.05;;;7.10;80.40;;;;;;5133266;27;20195;-67
2021/11/13 07:55:55;;;;;;;7.40;6.70;;;7.40;78.30;;;;;;5133892;27;20280;-66
2021/11/13 07:58:23;;;;;;;10.50;8.13;;;7.70;76.30;;;;;;5133597;27;20271;-66
2021/11/13 08:00:55;;;;;;;11.20;8.48;;;7.90;75.40;;;;;;5133858;27;20184;-68
2021/11/13 08:03:27;;;;;;;9.70;7.88;;;8.20;73.80;;;;;;5129595;27;20691;-67
2021/11/13 08:06:10;;;;;;;9.77;8.30;;;8.60;72.40;;;;;;5133623;27;20236;-67
2021/11/13 08:08:37;;;;;;;11.35;9.52;;;9.00;70.50;;;;;;5133318;27;20251;-68
2021/11/13 08:11:08;;;;;;;16.00;10.75;;;9.30;70.20;;;;;;5133566;27;20246;-67
2021/11/13 08:13:39;;;;;;;11.30;10.10;;;9.70;68.50;;;;;;5133054;27;20509;-68
2021/11/13 08:16:08;;;;;;;11.75;10.55;;;10.10;65.10;;;;;;5134041;27;20672;-68
2021/11/13 08:18:35;;;;;;;10.95;8.55;;;10.60;66.20;;;;;;5132840;27;20227;-68
2021/11/13 08:21:03;;;;;;;9.95;8.55;;;11.20;63.20;;;;;;5132588;27;20278;-68
2021/11/13 08:23:31;;;;;;;9.88;8.68;;;11.80;60.40;;;;;;5132882;27;20659;-68
2021/11/13 08:25:58;;;;;;;10.02;7.70;;;11.90;57.40;;;;;;5133474;27;20211;-68
2021/11/13 08:28:26;;;;;;;7.28;6.60;;;11.60;57.40;;;;;;5132792;27;20222;-68
2021/11/13 08:31:02;;;;;;;7.90;7.05;;;11.30;57.60;;;;;;5132574;27;20241;-68
2021/11/13 08:33:31;;;;;;;8.57;7.65;;;10.90;58.20;;;;;;5132850;27;20180;-68
2021/11/13 08:35:59;;;;;;;9.55;7.85;;;10.70;60.60;;;;;;5132279;27;20188;-67
2021/11/13 08:38:27;;;;;;;9.52;8.48;;;10.50;61.80;;;;;;5124486;27;20681;-67
2021/11/13 08:40:59;;;;;;;17.33;12.50;;;10.50;62.00;;;;;;5132636;27;20200;-67
2021/11/13 08:43:31;;;;;;;15.77;11.45;;;10.40;62.20;;;;;;5131712;27;20188;-67
2021/11/13 08:46:03;;;;;;;21.35;12.70;;;10.40;63.60;;;;;;5132813;27;20271;-67
2021/11/13 08:48:32;;;;;;;17.95;12.93;;;10.30;64.90;;;;;;5133335;27;20310;-66
2021/11/13 08:51:27;;;;;;;15.05;11.00;;;10.20;65.00;;;;;;5114456;27;20211;-69
2021/11/13 08:54:09;;;;;;;11.18;9.73;;;10.20;66.40;;;;;;5113386;27;20206;-67
2021/11/13 08:56:42;;;;;;;10.60;8.48;;;10.10;66.60;;;;;;5131387;27;20240;-67
2021/11/13 08:59:10;;;;;;;11.88;9.77;;;10.00;67.00;;;;;;5132446;27;20647;-67
2021/11/13 09:01:40;;;;;;;7.85;7.05;;;9.90;68.30;;;;;;5131558;27;20231;-67
2021/11/13 09:04:12;;;;;;;7.45;6.80;;;9.90;69.00;;;;;;5132260;27;20267;-66
2021/11/13 09:06:51;;;;;;;8.50;6.88;;;9.70;69.80;;;;;;5125618;27;20219;-71
2021/11/13 09:09:21;;;;;;;9.48;7.07;;;9.70;70.20;;;;;;5112853;27;20370;-68
2021/11/13 09:11:57;;;;;;;9.90;7.25;;;9.60;71.10;;;;;;5125434;27;20214;-68
2021/11/13 09:14:39;;;;;;;9.25;7.20;;;9.50;70.80;;;;;;5132692;27;20358;-65
2021/11/13 09:17:11;;;;;;;14.05;7.80;;;9.40;71.20;;;;;;5131963;27;20188;-67
2021/11/13 09:20:00;;;;;;;9.63;8.70;;;9.30;71.60;;;;;;5132554;27;20240;-67
2021/11/13 09:22:27;;;;;;;9.30;7.82;;;9.20;72.40;;;;;;5132506;27;20271;-67
2021/11/13 09:24:59;;;;;;;13.43;11.93;;;9.10;72.40;;;;;;5132192;27;20230;-68
2021/11/13 09:27:27;;;;;;;9.50;8.48;;;9.00;72.40;;;;;;5130823;27;20259;-67
2021/11/13 09:29:59;;;;;;;10.30;8.35;;;8.90;73.70;;;;;;5131192;27;20273;-67
2021/11/13 09:32:36;;;;;;;8.98;7.13;;;8.90;74.00;;;;;;5131662;27;20224;-67
2021/11/13 09:35:14;;;;;;;14.13;12.25;;;8.80;74.10;;;;;;5131542;27;20228;-67
2021/11/13 09:37:46;;;;;;;9.93;7.05;;;8.80;75.00;;;;;;5130629;27;20322;-68
2021/11/13 09:40:24;;;;;;;9.27;7.05;;;8.80;73.70;;;;;;5127242;27;20286;-67
2021/11/13 09:42:53;;;;;;;8.20;7.30;;;8.70;73.70;;;;;;5131618;27;20287;-67
2021/11/13 09:45:21;;;;;;;9.43;8.43;;;8.60;74.60;;;;;;5131875;27;20256;-66
2021/11/13 09:47:50;;;;;;;11.43;7.45;;;8.60;75.30;;;;;;5131106;27;20233;-67
2021/11/13 09:50:19;;;;;;;8.98;7.45;;;8.60;75.80;;;;;;5131487;27;20262;-68
2021/11/13 09:52:47;;;;;;;9.27;7.55;;;8.60;75.80;;;;;;5130640;27;20176;-67
2021/11/13 09:55:15;;;;;;;16.50;9.77;;;8.60;76.70;;;;;;5130986;27;20192;-67
2021/11/13 09:57:43;;;;;;;14.60;8.90;;;8.60;77.40;;;;;;5131110;27;20265;-67
2021/11/13 10:00:19;;;;;;;12.70;9.60;;;8.60;77.00;;;;;;5131379;27;20274;-67
2021/11/13 10:02:47;;;;;;;9.30;8.30;;;8.60;76.60;;;;;;5131353;27;20188;-67
2021/11/13 10:05:18;;;;;;;12.20;9.52;;;8.50;77.70;;;;;;5131036;27;20602;-67
2021/11/13 10:07:47;;;;;;;9.57;7.80;;;8.60;78.60;;;;;;5127971;28;20192;-67
2021/11/13 10:10:26;;;;;;;12.15;10.02;;;8.70;79.10;;;;;;5130896;27;20247;-67
2021/11/13 10:12:59;;;;;;;11.70;10.50;;;8.80;79.20;;;;;;5131653;28;20557;-67
2021/11/13 10:15:34;;;;;;;13.95;11.55;;;9.00;80.10;;;;;;5131641;28;20227;-67
2021/11/13 10:18:14;;;;;;;11.00;9.40;;;9.20;79.40;;;;;;5118454;27;20589;-68
2021/11/13 10:20:48;;;;;;;10.93;9.82;;;9.30;78.50;;;;;;5127584;28;20187;-67
2021/11/13 10:23:34;;;;;;;13.32;9.25;;;9.50;77.90;;;;;;5125769;27;20198;-67
2021/11/13 10:26:17;;;;;;;10.30;8.60;;;9.60;79.00;;;;;;5128325;28;20196;-68
2021/11/13 10:28:56;;;;;;;13.65;8.55;;;9.80;79.40;;;;;;5129343;28;20219;-67
2021/11/13 10:31:31;;;;;;;13.38;8.82;;;9.90;78.20;;;;;;5127724;28;20296;-67
2021/11/13 10:34:07;;;;;;;13.00;9.23;;;10.10;77.40;;;;;;5128557;28;20221;-67
2021/11/13 10:36:41;;;;;;;9.02;8.10;;;10.20;76.40;;;;;;5129606;28;20244;-67
2021/11/13 10:39:15;;;;;;;11.60;9.40;;;10.30;76.60;;;;;;5129933;27;20272;-67
2021/11/13 10:41:49;;;;;;;11.27;9.85;;;10.50;77.80;;;;;;5128429;28;20559;-68
2021/11/13 10:44:23;;;;;;;11.32;10.00;;;10.70;77.20;;;;;;5128255;28;20307;-67
2021/11/13 10:47:01;;;;;;;10.20;7.95;;;10.80;77.10;;;;;;5129339;28;20686;-68
2021/11/13 10:49:30;;;;;;;9.48;8.30;;;11.00;75.50;;;;;;5127074;28;20262;-68
2021/11/13 10:52:06;;;;;;;9.45;8.45;;;11.10;75.80;;;;;;5129213;27;20187;-68
2021/11/13 10:54:33;;;;;;;8.65;7.38;;;11.20;75.90;;;;;;5127000;28;20252;-67
2021/11/13 10:57:07;;;;;;;9.82;7.82;;;11.30;75.60;;;;;;5127992;28;20196;-67
2021/11/13 10:59:36;;;;;;;8.35;7.05;;;11.30;75.30;;;;;;5130886;27;20271;-68
2021/11/13 11:02:07;;;;;;;8.35;7.47;;;11.20;74.30;;;;;;5133146;27;20196;-67
2021/11/13 11:04:47;;;;;;;11.65;7.13;;;11.10;75.40;;;;;;5134094;27;20249;-67
2021/11/13 11:07:26;;;;;;;9.10;7.65;;;11.00;74.70;;;;;;5132403;27;20192;-67
2021/11/13 11:10:08;;;;;;;7.90;6.95;;;10.90;74.80;;;;;;5132963;27;20346;-67
2021/11/13 11:12:40;;;;;;;11.68;8.93;;;10.80;75.30;;;;;;5131641;27;20697;-67
2021/11/13 11:18:19;;;;;;;12.55;9.35;;;10.60;76.00;;;;;;5127061;27;20193;-68
2021/11/13 11:20:59;;;;;;;13.52;9.98;;;10.50;76.90;;;;;;5131764;27;20200;-67
2021/11/13 11:23:36;;;;;;;10.85;8.38;;;10.40;77.40;;;;;;5129586;27;20545;-66
2021/11/13 11:26:14;;;;;;;15.10;9.77;;;10.30;77.80;;;;;;5132856;27;20561;-66
2021/11/13 11:28:57;;;;;;;11.68;8.63;;;10.30;78.30;;;;;;5132987;27;20223;-67
2021/11/13 11:31:42;;;;;;;13.32;10.18;;;10.30;79.00;;;;;;5130424;27;20195;-67
2021/11/13 11:34:31;;;;;;;12.13;9.40;;;10.20;79.50;;;;;;5132388;27;20227;-67
2021/11/13 11:37:16;;;;;;;14.27;10.32;;;10.20;80.20;;;;;;5132590;27;20220;-67
2021/11/13 11:39:55;;;;;;;10.68;9.55;;;10.20;80.60;;;;;;5132676;27;20200;-67
2021/11/13 11:42:42;;;;;;;12.38;11.23;;;10.10;80.90;;;;;;5133110;27;20718;-67
2021/11/13 11:45:15;;;;;;;12.70;9.13;;;10.10;81.10;;;;;;5130937;27;20576;-66
2021/11/13 11:47:52;;;;;;;13.10;10.02;;;10.10;81.40;;;;;;5132573;27;20659;-67
2021/11/13 11:50:28;;;;;;;11.82;10.48;;;10.10;82.00;;;;;;5132291;27;20218;-66
2021/11/13 11:53:01;;;;;;;13.18;9.93;;;10.10;82.40;;;;;;5130343;27;20200;-66
2021/11/13 11:55:38;;;;;;;10.30;9.10;;;10.20;82.50;;;;;;5132180;27;20278;-67
2021/11/13 11:58:12;;;;;;;9.23;8.00;;;10.20;82.90;;;;;;5130656;27;20203;-66
2021/11/13 12:00:45;;;;;;;11.15;8.13;;;10.20;83.10;;;;;;5132165;27;20650;-70
2021/11/13 12:03:21;;;;;;;9.90;7.82;;;10.20;83.50;;;;;;5132395;27;20191;-66
2021/11/13 12:05:55;;;;;;;11.27;8.52;;;10.20;83.80;;;;;;5130101;27;20274;-68
2021/11/13 12:08:38;;;;;;;14.65;8.60;;;10.20;83.90;;;;;;5132421;27;20838;-67
2021/11/13 12:11:21;;;;;;;12.48;9.20;;;10.30;84.00;;;;;;5131258;27;20227;-67
2021/11/13 12:13:54;;;;;;;10.80;8.35;;;10.30;83.90;;;;;;5131463;27;20200;-67
2021/11/13 12:16:28;;;;;;;13.27;9.13;;;10.30;83.90;;;;;;5132464;27;20630;-65
2021/11/13 12:19:09;;;;;;;9.98;8.38;;;10.30;84.10;;;;;;5132661;27;20276;-66
2021/11/13 12:22:00;;;;;;;16.30;7.60;;;10.30;84.30;;;;;;5132149;27;20226;-66
2021/11/13 12:24:32;;;;;;;10.20;7.75;;;10.30;84.40;;;;;;5132040;27;20194;-66
2021/11/13 12:27:13;;;;;;;12.48;10.27;;;10.30;84.60;;;;;;5132010;27;20315;-66
2021/11/13 12:29:49;;;;;;;12.80;8.70;;;10.40;84.70;;;;;;5131873;27;20431;-66
2021/11/13 12:32:32;;;;;;;11.98;9.20;;;10.40;84.60;;;;;;5131790;27;20249;-66
2021/11/13 12:35:16;;;;;;;12.13;9.65;;;10.30;84.40;;;;;;5128853;27;20241;-66
2021/11/13 12:37:49;;;;;;;11.07;9.85;;;10.30;84.40;;;;;;5131912;27;20226;-66
2021/11/13 12:40:37;;;;;;;11.23;9.25;;;10.30;84.30;;;;;;5131594;27;20241;-66
2021/11/13 12:43:06;;;;;;;12.10;8.63;;;10.30;84.50;;;;;;5127977;27;20196;-66
2021/11/13 12:45:44;;;;;;;10.15;7.07;;;10.30;84.80;;;;;;5130216;27;20253;-66
2021/11/13 12:48:23;;;;;;;8.95;7.45;;;10.30;84.90;;;;;;5128890;27;20623;-68
2021/11/13 12:50:53;;;;;;;14.15;8.32;;;10.30;84.90;;;;;;5131309;27;20219;-67
2021/11/13 12:53:24;;;;;;;9.20;6.80;;;10.30;85.00;;;;;;5129410;27;20184;-68
2021/11/13 12:55:54;;;;;;;10.63;8.27;;;10.30;85.10;;;;;;5131187;27;20196;-67
2021/11/13 12:58:33;;;;;;;12.00;7.50;;;10.30;85.50;;;;;;5131162;27;20190;-66
2021/11/13 13:01:15;;;;;;;9.70;7.93;;;10.30;85.80;;;;;;5131511;27;20235;-65
2021/11/13 13:03:48;;;;;;;9.73;7.57;;;10.30;85.80;;;;;;5128910;27;20199;-65
2021/11/13 13:06:16;;;;;;;11.43;8.40;;;10.30;85.90;;;;;;5131615;27;20199;-66
2021/11/13 13:09:00;;;;;;;9.40;7.68;;;10.30;85.90;;;;;;5131246;27;20199;-67
2021/11/13 13:11:28;;;;;;;10.82;8.27;;;10.30;85.80;;;;;;5129818;27;20281;-66
2021/11/13 13:13:59;;;;;;;11.23;8.68;;;10.30;85.60;;;;;;5130172;27;20241;-67
2021/11/13 13:16:31;;;;;;;12.10;9.10;;;10.30;85.50;;;;;;5129750;27;20245;-67